createdAt,value
2023-03-11T00:01:43.535Z,91.69
2023-03-11T00:04:10.175Z,90.96
2023-03-11T00:06:39.580Z,90.77
2023-03-11T00:09:06.295Z,91.73
2023-03-11T00:11:35.269Z,90.91
2023-03-11T00:14:01.938Z,92.49
2023-03-11T00:16:28.565Z,91.26
2023-03-11T00:18:57.580Z,90.53
2023-03-11T00:21:24.243Z,90.81
2023-03-11T00:23:50.955Z,91.29
2023-03-11T00:26:17.616Z,91.31
2023-03-11T00:28:44.256Z,92.28
2023-03-11T00:31:14.250Z,91.53
2023-03-11T00:33:40.917Z,91.57
2023-03-11T00:36:07.641Z,91.46
2023-03-11T00:38:37.713Z,91.61
2023-03-11T00:41:04.802Z,91.52
2023-03-11T00:43:31.364Z,91.33
2023-03-11T00:45:58.158Z,91.04
2023-03-11T00:48:24.826Z,90.85
2023-03-11T00:50:51.408Z,91.70
2023-03-11T00:53:18.290Z,90.84
2023-03-11T00:55:44.957Z,91.57
2023-03-11T00:58:13.665Z,90.64
2023-03-11T01:00:55.731Z,91.18
2023-03-11T01:03:24.684Z,90.79
2023-03-11T01:05:51.299Z,90.84
2023-03-11T01:08:18.006Z,91.45
2023-03-11T01:10:44.559Z,91.43
2023-03-11T01:13:12.280Z,92.00
2023-03-11T01:15:39.039Z,91.39
2023-03-11T01:18:06.359Z,91.21
2023-03-11T01:20:33.942Z,92.03
2023-03-11T01:23:00.874Z,91.25
2023-03-11T01:25:28.388Z,91.48
2023-03-11T01:27:57.760Z,91.15
2023-03-11T01:30:24.788Z,90.60
2023-03-11T01:32:52.463Z,90.72
2023-03-11T01:35:20.594Z,91.02
2023-03-11T01:37:47.629Z,90.84
2023-03-11T01:40:19.349Z,90.28
2023-03-11T01:42:46.056Z,90.87
2023-03-11T01:45:31.377Z,91.53
2023-03-11T01:48:00.586Z,90.80
2023-03-11T01:50:31.744Z,90.74
2023-03-11T01:52:58.510Z,90.95
2023-03-11T01:55:25.114Z,90.61
2023-03-11T01:57:51.971Z,91.05
2023-03-11T02:00:18.776Z,90.28
2023-03-11T02:02:51.215Z,90.00
2023-03-11T02:05:22.612Z,91.30
2023-03-11T02:07:50.790Z,91.31
2023-03-11T02:10:19.573Z,90.37
2023-03-11T02:12:48.947Z,90.60
2023-03-11T02:15:24.630Z,89.26
2023-03-11T02:17:52.683Z,89.34
2023-03-11T02:20:46.372Z,89.86
2023-03-11T02:23:17.675Z,89.25
2023-03-11T02:26:02.655Z,89.79
2023-03-11T02:28:31.257Z,89.62
2023-03-11T02:30:58.029Z,90.39
2023-03-11T02:33:29.265Z,90.15
2023-03-11T02:35:59.314Z,88.76
2023-03-11T02:38:26.253Z,89.52
2023-03-11T02:41:08.774Z,89.11
2023-03-11T02:43:41.768Z,90.25
2023-03-11T02:46:11.736Z,91.16
2023-03-11T02:48:38.937Z,90.52
2023-03-11T02:51:05.819Z,89.66
2023-03-11T02:53:35.696Z,89.55
2023-03-11T02:56:02.361Z,89.91
2023-03-11T02:58:29.398Z,89.32
2023-03-11T03:00:56.117Z,89.02
2023-03-11T03:03:23.432Z,89.03
2023-03-11T03:05:49.957Z,89.21
2023-03-11T03:08:19.365Z,88.55
2023-03-11T03:10:49.870Z,88.94
2023-03-11T03:13:19.568Z,88.50
2023-03-11T03:15:46.598Z,88.67
2023-03-11T03:18:14.158Z,88.44
2023-03-11T03:20:43.188Z,88.02
2023-03-11T03:23:09.905Z,87.33
2023-03-11T03:25:36.755Z,87.64
2023-03-11T03:28:10.612Z,87.04
2023-03-11T03:30:39.456Z,86.33
2023-03-11T03:33:07.117Z,86.99
2023-03-11T03:35:36.431Z,86.75
2023-03-11T03:38:07.528Z,86.83
2023-03-11T03:40:34.247Z,86.00
2023-03-11T03:43:03.981Z,86.05
2023-03-11T03:45:32.154Z,86.30
2023-03-11T03:47:59.027Z,86.98
2023-03-11T03:50:30.266Z,86.72
2023-03-11T03:52:57.308Z,86.35
2023-03-11T03:55:24.401Z,86.50
2023-03-11T03:57:51.583Z,85.83
2023-03-11T04:00:20.422Z,85.85
2023-03-11T04:02:53.760Z,85.49
2023-03-11T04:05:31.289Z,85.35
2023-03-11T04:07:58.166Z,84.97
2023-03-11T04:10:24.732Z,85.41
2023-03-11T04:12:51.634Z,85.30
2023-03-11T04:15:18.462Z,84.21
2023-03-11T04:17:45.056Z,83.35
2023-03-11T04:20:12.543Z,84.92
2023-03-11T04:22:47.381Z,84.04
2023-03-11T04:25:14.840Z,84.30
2023-03-11T04:27:46.106Z,84.50
2023-03-11T04:30:13.995Z,84.78
2023-03-11T04:32:41.441Z,85.26
2023-03-11T04:35:09.390Z,84.74
2023-03-11T04:37:38.253Z,85.14
2023-03-11T04:40:06.373Z,84.89
2023-03-11T04:42:34.355Z,84.50
2023-03-11T04:45:03.859Z,84.60
2023-03-11T04:47:31.231Z,84.42
2023-03-11T04:49:58.322Z,84.67
2023-03-11T04:52:27.435Z,84.97
2023-03-11T04:54:54.192Z,83.58
2023-03-11T04:57:21.707Z,83.65
2023-03-11T04:59:48.540Z,83.87
2023-03-11T05:02:16.030Z,83.24
2023-03-11T05:04:50.911Z,83.85
2023-03-11T05:07:17.740Z,84.65
2023-03-11T05:09:45.967Z,85.94
2023-03-11T05:12:13.196Z,85.73
2023-03-11T05:14:42.180Z,86.38
2023-03-11T05:17:12.118Z,86.37
2023-03-11T05:19:39.295Z,86.16
2023-03-11T05:22:11.773Z,86.20
2023-03-11T05:24:38.565Z,87.58
2023-03-11T05:27:08.129Z,87.52
2023-03-11T05:29:38.512Z,86.22
2023-03-11T05:32:07.091Z,86.57
2023-03-11T05:34:33.749Z,86.17
2023-03-11T05:37:03.213Z,85.40
2023-03-11T05:39:30.679Z,86.04
2023-03-11T05:41:57.480Z,85.45
2023-03-11T05:44:25.328Z,86.59
2023-03-11T05:46:52.647Z,86.17
2023-03-11T05:49:21.359Z,86.48
2023-03-11T05:51:50.392Z,86.78
2023-03-11T05:54:17.620Z,86.52
2023-03-11T05:56:47.793Z,86.44
2023-03-11T05:59:16.615Z,86.34
2023-03-11T06:01:47.591Z,85.01
2023-03-11T06:04:14.350Z,86.45
2023-03-11T06:06:41.740Z,85.98
2023-03-11T06:09:15.429Z,86.13
2023-03-11T06:11:43.186Z,85.24
2023-03-11T06:14:12.033Z,86.40
2023-03-11T06:16:39.155Z,85.95
2023-03-11T06:19:06.062Z,86.19
2023-03-11T06:21:37.251Z,86.05
2023-03-11T06:24:07.374Z,86.39
2023-03-11T06:26:34.335Z,86.02
2023-03-11T06:29:01.425Z,85.60
2023-03-11T06:31:35.105Z,85.84
2023-03-11T06:34:07.348Z,85.46
2023-03-11T06:36:36.368Z,84.96
2023-03-11T06:39:03.739Z,83.87
2023-03-11T06:41:33.339Z,83.57
2023-03-11T06:44:00.396Z,84.13
2023-03-11T06:46:28.244Z,84.13
2023-03-11T06:48:58.172Z,83.56
2023-03-11T06:51:26.914Z,82.48
2023-03-11T06:53:53.762Z,82.76
2023-03-11T06:56:22.832Z,84.03
2023-03-11T06:58:54.843Z,83.54
2023-03-11T07:01:24.457Z,82.37
2023-03-11T07:03:53.231Z,83.76
2023-03-11T07:06:23.117Z,83.39
2023-03-11T07:08:52.057Z,83.31
2023-03-11T07:11:21.620Z,83.52
2023-03-11T07:13:50.442Z,82.58
2023-03-11T07:16:27.707Z,82.31
2023-03-11T07:19:03.219Z,82.01
2023-03-11T07:21:31.637Z,82.02
2023-03-11T07:23:59.271Z,81.15
2023-03-11T07:26:26.482Z,80.78
2023-03-11T07:28:54.467Z,80.73
2023-03-11T07:31:25.424Z,81.39
2023-03-11T07:33:52.621Z,81.32
2023-03-11T07:36:23.447Z,81.30
2023-03-11T07:38:54.422Z,80.14
2023-03-11T07:41:21.032Z,79.71
2023-03-11T07:43:47.800Z,80.27
2023-03-11T07:46:18.549Z,79.43
2023-03-11T07:48:45.768Z,79.23
2023-03-11T07:51:20.648Z,79.46
2023-03-11T07:53:50.095Z,79.20
2023-03-11T07:56:17.442Z,79.19
2023-03-11T07:58:45.801Z,79.28
2023-03-11T08:01:16.071Z,80.29
2023-03-11T08:03:43.752Z,80.32
2023-03-11T08:06:13.843Z,80.14
2023-03-11T08:08:41.683Z,79.35
2023-03-11T08:11:08.357Z,78.69
2023-03-11T08:13:37.850Z,78.27
2023-03-11T08:16:05.574Z,78.69
2023-03-11T08:18:32.799Z,78.50
2023-03-11T08:20:59.875Z,79.12
2023-03-11T08:23:26.496Z,78.00
2023-03-11T08:25:53.673Z,77.38
2023-03-11T08:28:20.290Z,77.11
2023-03-11T08:30:46.898Z,76.65
2023-03-11T08:33:13.715Z,77.29
2023-03-11T08:35:40.591Z,76.46
2023-03-11T08:38:07.371Z,74.93
2023-03-11T08:40:34.039Z,74.21
2023-03-11T08:43:00.748Z,74.57
2023-03-11T08:45:27.274Z,73.19
2023-03-11T08:47:54.067Z,73.27
2023-03-11T08:50:20.738Z,74.45
2023-03-11T08:52:47.694Z,74.33
2023-03-11T08:55:17.614Z,74.24
2023-03-11T08:57:44.841Z,74.89
2023-03-11T09:00:14.682Z,74.51
2023-03-11T09:02:41.821Z,74.37
2023-03-11T09:05:08.712Z,74.43
2023-03-11T09:07:35.572Z,73.87
2023-03-11T09:10:02.320Z,73.62
2023-03-11T09:12:28.937Z,73.24
2023-03-11T09:14:56.267Z,73.17
2023-03-11T09:17:22.948Z,73.24
2023-03-11T09:19:49.547Z,71.21
2023-03-11T09:22:19.284Z,70.14
2023-03-11T09:24:45.854Z,69.92
2023-03-11T09:27:13.236Z,70.56
2023-03-11T09:29:39.891Z,69.84
2023-03-11T09:32:06.609Z,69.06
2023-03-11T09:34:33.312Z,68.74
2023-03-11T09:37:03.147Z,69.61
2023-03-11T09:39:29.813Z,68.75
2023-03-11T09:42:06.087Z,68.67
2023-03-11T09:44:38.899Z,69.33
2023-03-11T09:47:20.673Z,68.60
2023-03-11T09:49:47.272Z,68.72
2023-03-11T09:52:37.932Z,67.72
2023-03-11T09:55:05.917Z,67.70
2023-03-11T09:57:34.500Z,68.14
2023-03-11T10:00:03.706Z,66.82
2023-03-11T10:02:40.279Z,66.55
2023-03-11T10:05:10.132Z,66.69
2023-03-11T10:07:41.301Z,67.65
2023-03-11T10:10:12.921Z,67.90
2023-03-11T10:12:39.491Z,66.52
2023-03-11T10:15:24.915Z,67.51
2023-03-11T10:18:00.500Z,67.55
2023-03-11T10:20:40.697Z,65.87
2023-03-11T10:23:19.440Z,64.31
2023-03-11T10:25:48.996Z,66.06
2023-03-11T10:28:24.163Z,65.26
2023-03-11T10:30:54.614Z,65.93
2023-03-11T10:33:33.201Z,64.54
2023-03-11T10:36:04.417Z,64.95
2023-03-11T10:38:33.164Z,65.59
2023-03-11T10:41:01.903Z,62.11
2023-03-11T10:43:41.627Z,64.81
2023-03-11T10:46:19.386Z,65.99
2023-03-11T10:48:46.076Z,65.02
2023-03-11T10:51:18.058Z,66.11
2023-03-11T10:53:50.096Z,63.30
2023-03-11T10:56:27.978Z,59.59
2023-03-11T10:58:55.265Z,57.35
2023-03-11T11:01:22.080Z,55.32
2023-03-11T11:03:50.424Z,52.79
2023-03-11T11:06:22.893Z,50.63
2023-03-11T11:08:51.806Z,51.84
2023-03-11T11:11:25.057Z,51.53
2023-03-11T11:13:58.912Z,52.40
2023-03-11T11:16:26.412Z,52.46
2023-03-11T11:18:58.855Z,52.05
2023-03-11T11:21:33.298Z,50.43
2023-03-11T11:24:02.740Z,49.51
2023-03-11T11:26:29.434Z,48.39
2023-03-11T11:29:13.765Z,51.33
2023-03-11T11:31:41.804Z,50.63
2023-03-11T11:34:29.468Z,50.29
2023-03-11T11:36:57.904Z,52.74
2023-03-11T11:39:26.310Z,51.54
2023-03-11T11:42:03.192Z,48.64
2023-03-11T11:44:33.980Z,49.20
2023-03-11T11:47:23.924Z,51.65
2023-03-11T11:49:54.515Z,47.49
2023-03-11T11:52:25.955Z,47.98
2023-03-11T11:55:01.384Z,47.10
2023-03-11T11:57:28.413Z,46.61
2023-03-11T11:59:57.089Z,39.72
2023-03-11T12:02:45.733Z,41.18
2023-03-11T12:05:32.801Z,48.04
2023-03-11T12:08:20.423Z,48.67
2023-03-11T12:11:10.276Z,46.35
2023-03-11T12:14:00.611Z,42.40
2023-03-11T12:16:29.170Z,42.25
2023-03-11T12:19:01.078Z,42.93
2023-03-11T12:21:38.016Z,41.83
2023-03-11T12:24:16.834Z,42.85
2023-03-11T12:26:46.810Z,45.04
2023-03-11T12:29:31.561Z,44.00
2023-03-11T12:31:59.824Z,45.54
2023-03-11T12:34:28.263Z,45.97
2023-03-11T12:36:56.702Z,46.92
2023-03-11T12:39:28.836Z,46.53
2023-03-11T12:42:14.022Z,49.09
2023-03-11T12:44:42.070Z,46.12
2023-03-11T12:47:08.870Z,44.86
2023-03-11T12:49:37.237Z,44.37
2023-03-11T12:52:03.875Z,42.92
2023-03-11T12:54:33.887Z,43.67
2023-03-11T12:57:24.013Z,42.52
2023-03-11T13:00:17.596Z,42.87
2023-03-11T13:02:59.178Z,48.45
2023-03-11T13:05:41.226Z,47.95
2023-03-11T13:08:10.675Z,47.14
2023-03-11T13:10:41.053Z,47.82
2023-03-11T13:13:26.542Z,46.46
2023-03-11T13:15:53.329Z,46.71
2023-03-11T13:18:24.212Z,46.70
2023-03-11T13:20:56.060Z,46.15
2023-03-11T13:23:25.458Z,46.63
2023-03-11T13:25:52.021Z,48.71
2023-03-11T13:28:30.749Z,48.10
2023-03-11T13:31:09.421Z,47.71
2023-03-11T13:33:54.792Z,46.75
2023-03-11T13:36:29.228Z,48.97
2023-03-11T13:39:24.651Z,49.17
2023-03-11T13:41:51.605Z,50.64
2023-03-11T13:44:24.372Z,49.13
2023-03-11T13:46:58.554Z,50.32
2023-03-11T13:49:31.006Z,50.51
2023-03-11T13:51:59.364Z,48.48
2023-03-11T13:54:30.766Z,49.42
2023-03-11T13:57:01.914Z,49.42
2023-03-11T13:59:33.084Z,49.45
2023-03-11T14:02:08.598Z,51.40
2023-03-11T14:04:37.481Z,51.04
2023-03-11T14:07:14.352Z,51.97
2023-03-11T14:09:46.518Z,50.49
2023-03-11T14:12:13.133Z,49.60
2023-03-11T14:14:51.811Z,50.79
2023-03-11T14:17:19.571Z,50.39
2023-03-11T14:20:04.827Z,52.05
2023-03-11T14:22:32.107Z,54.49
2023-03-11T14:25:00.428Z,53.93
2023-03-11T14:27:27.140Z,55.03
2023-03-11T14:29:53.705Z,55.95
2023-03-11T14:32:23.429Z,51.82
2023-03-11T14:34:52.951Z,49.99
2023-03-11T14:37:36.032Z,50.50
2023-03-11T14:40:05.824Z,52.28
2023-03-11T14:42:35.176Z,50.37
2023-03-11T14:45:11.970Z,47.36
2023-03-11T14:47:50.794Z,50.32
2023-03-11T14:50:21.444Z,53.69
2023-03-11T14:53:07.028Z,53.05
2023-03-11T14:55:40.521Z,52.75
2023-03-11T14:58:14.887Z,53.47
2023-03-11T15:00:53.597Z,51.55
2023-03-11T15:03:23.695Z,53.88
2023-03-11T15:05:56.220Z,53.54
2023-03-11T15:08:26.296Z,53.93
2023-03-11T15:11:03.264Z,53.59
2023-03-11T15:13:30.600Z,53.51
2023-03-11T15:15:57.822Z,54.42
2023-03-11T15:18:25.557Z,55.91
2023-03-11T15:21:04.593Z,56.02
2023-03-11T15:23:31.873Z,58.71
2023-03-11T15:25:58.492Z,56.97
2023-03-11T15:28:29.137Z,57.60
2023-03-11T15:31:14.637Z,57.37
2023-03-11T15:33:41.494Z,57.22
2023-03-11T15:36:28.352Z,57.58
2023-03-11T15:39:12.107Z,56.66
2023-03-11T15:41:39.670Z,57.13
2023-03-11T15:44:20.492Z,55.29
2023-03-11T15:46:48.135Z,56.62
2023-03-11T15:49:16.975Z,56.87
2023-03-11T15:51:46.315Z,56.64
2023-03-11T15:54:12.952Z,57.29
2023-03-11T15:56:40.049Z,55.88
2023-03-11T15:59:06.749Z,55.72
2023-03-11T16:01:33.363Z,56.01
2023-03-11T16:04:00.119Z,55.98
2023-03-11T16:06:29.106Z,55.51
2023-03-11T16:08:55.723Z,55.26
2023-03-11T16:11:22.452Z,55.05
2023-03-11T16:13:49.045Z,55.04
2023-03-11T16:16:16.229Z,53.03
2023-03-11T16:18:42.906Z,54.25
2023-03-11T16:21:17.363Z,53.80
2023-03-11T16:23:51.584Z,54.47
2023-03-11T16:26:19.126Z,54.13
2023-03-11T16:28:47.982Z,51.96
2023-03-11T16:31:14.611Z,51.15
2023-03-11T16:33:41.331Z,51.11
2023-03-11T16:36:08.108Z,51.76
2023-03-11T16:38:46.179Z,52.21
2023-03-11T16:41:13.011Z,52.70
2023-03-11T16:43:39.537Z,51.63
2023-03-11T16:46:09.367Z,52.45
2023-03-11T16:48:35.956Z,52.21
2023-03-11T16:51:05.568Z,52.86
2023-03-11T16:53:34.457Z,53.51
2023-03-11T16:56:01.326Z,54.75
2023-03-11T16:58:27.893Z,55.44
2023-03-11T17:00:54.562Z,55.74
2023-03-11T17:03:21.866Z,56.67
2023-03-11T17:05:48.696Z,58.45
2023-03-11T17:08:20.154Z,58.50
2023-03-11T17:10:46.817Z,59.04
2023-03-11T17:13:14.095Z,58.67
2023-03-11T17:15:44.689Z,59.41
2023-03-11T17:18:12.010Z,58.83
2023-03-11T17:20:39.655Z,59.37
2023-03-11T17:23:06.314Z,59.04
2023-03-11T17:25:32.889Z,59.16
2023-03-11T17:27:59.520Z,59.00
2023-03-11T17:30:36.368Z,59.15
2023-03-11T17:33:04.307Z,59.77
2023-03-11T17:35:35.040Z,59.65
2023-03-11T17:38:04.520Z,59.76
2023-03-11T17:40:32.671Z,59.95
2023-03-11T17:42:59.519Z,59.86
2023-03-11T17:45:26.128Z,59.84
2023-03-11T17:47:52.776Z,59.51
2023-03-11T17:50:19.498Z,59.50
2023-03-11T17:52:49.183Z,60.16
2023-03-11T17:55:18.188Z,60.12
2023-03-11T17:57:45.965Z,59.65
2023-03-11T18:00:14.811Z,59.98
2023-03-11T18:02:41.605Z,60.62
2023-03-11T18:05:09.471Z,60.58
2023-03-11T18:07:39.063Z,60.44
2023-03-11T18:10:06.753Z,60.83
2023-03-11T18:12:33.473Z,60.83
2023-03-11T18:15:01.450Z,60.82
2023-03-11T18:17:29.032Z,60.75
2023-03-11T18:19:55.788Z,61.21
2023-03-11T18:22:22.343Z,60.98
2023-03-11T18:24:48.923Z,61.83
2023-03-11T18:27:15.523Z,61.17
2023-03-11T18:29:42.295Z,62.10
2023-03-11T18:32:09.011Z,61.30
2023-03-11T18:34:35.807Z,61.68
2023-03-11T18:37:02.372Z,62.23
2023-03-11T18:39:28.986Z,61.98
2023-03-11T18:42:04.283Z,61.53
2023-03-11T18:44:30.910Z,62.41
2023-03-11T18:46:57.550Z,62.10
2023-03-11T18:49:24.165Z,61.77
2023-03-11T18:51:53.155Z,61.32
2023-03-11T18:54:19.830Z,61.47
2023-03-11T18:56:46.463Z,62.43
2023-03-11T18:59:14.474Z,61.54
2023-03-11T19:01:41.072Z,61.23
2023-03-11T19:04:07.831Z,61.52
2023-03-11T19:06:34.543Z,61.44
2023-03-11T19:09:01.261Z,61.49
2023-03-11T19:11:28.703Z,62.44
2023-03-11T19:13:55.493Z,61.90
2023-03-11T19:16:23.977Z,62.50
2023-03-11T19:18:52.666Z,61.79
2023-03-11T19:21:21.580Z,61.77
2023-03-11T19:23:50.091Z,61.96
2023-03-11T19:26:16.627Z,62.27
2023-03-11T19:28:46.067Z,62.66
2023-03-11T19:31:12.721Z,62.89
2023-03-11T19:33:39.729Z,62.64
2023-03-11T19:36:09.240Z,63.28
2023-03-11T19:38:35.986Z,63.05
2023-03-11T19:41:06.770Z,62.78
2023-03-11T19:43:35.599Z,62.89
2023-03-11T19:46:03.073Z,63.17
2023-03-11T19:48:29.815Z,63.10
2023-03-11T19:50:58.525Z,63.30
2023-03-11T19:53:28.374Z,63.53
2023-03-11T19:55:58.386Z,63.18
2023-03-11T19:58:29.421Z,63.23
2023-03-11T20:00:58.034Z,62.99
2023-03-11T20:03:24.808Z,62.63
2023-03-11T20:05:52.939Z,63.09
2023-03-11T20:08:20.487Z,62.76
2023-03-11T20:10:48.620Z,63.04
2023-03-11T20:13:20.342Z,63.11
2023-03-11T20:15:47.555Z,63.45
2023-03-11T20:18:16.686Z,63.08
2023-03-11T20:20:44.622Z,62.28
2023-03-11T20:23:13.200Z,62.46
2023-03-11T20:25:40.553Z,62.08
2023-03-11T20:28:08.030Z,62.05
2023-03-11T20:30:34.722Z,61.43
2023-03-11T20:33:01.442Z,61.66
2023-03-11T20:35:28.183Z,61.57
2023-03-11T20:37:57.195Z,61.43
2023-03-11T20:40:23.959Z,61.89
2023-03-11T20:42:50.679Z,61.96
2023-03-11T20:45:21.624Z,61.62
2023-03-11T20:47:49.388Z,61.46
2023-03-11T20:50:18.674Z,61.33
2023-03-11T20:55:29.166Z,61.97
2023-03-11T20:57:55.964Z,61.51
2023-03-11T21:00:22.625Z,62.00
2023-03-11T21:02:49.390Z,62.66
2023-03-11T21:05:16.127Z,62.33
2023-03-11T21:07:42.815Z,63.14
2023-03-11T21:10:13.804Z,62.94
2023-03-11T21:12:40.631Z,62.98
2023-03-11T21:15:08.108Z,62.70
2023-03-11T21:17:35.147Z,63.04
2023-03-11T21:20:01.984Z,62.10
2023-03-11T21:22:31.088Z,62.49
2023-03-11T21:24:57.705Z,62.95
2023-03-11T21:27:27.814Z,62.98
2023-03-11T21:29:58.105Z,62.69
2023-03-11T21:32:25.791Z,63.05
2023-03-11T21:34:57.407Z,63.23
2023-03-11T21:37:28.012Z,63.86
2023-03-11T21:39:54.941Z,63.83
2023-03-11T21:42:21.873Z,63.56
2023-03-11T21:44:48.775Z,63.38
2023-03-11T21:47:15.520Z,63.49
2023-03-11T21:49:42.210Z,63.22
2023-03-11T21:52:09.570Z,62.93
2023-03-11T21:54:36.302Z,62.82
2023-03-11T21:57:03.101Z,63.65
2023-03-11T21:59:30.825Z,63.20
2023-03-11T22:02:03.598Z,62.59
2023-03-11T22:04:31.010Z,62.88
2023-03-11T22:06:57.943Z,62.61
2023-03-11T22:09:25.919Z,62.70
2023-03-11T22:11:52.809Z,62.45
2023-03-11T22:14:19.465Z,63.39
2023-03-11T22:16:46.148Z,62.65
2023-03-11T22:19:12.895Z,62.64
2023-03-11T22:21:39.686Z,63.41
2023-03-11T22:24:06.455Z,63.63
2023-03-11T22:26:40.212Z,62.75
2023-03-11T22:29:08.906Z,62.87
2023-03-11T22:31:38.282Z,62.98
2023-03-11T22:34:07.969Z,62.98
2023-03-11T22:36:35.387Z,62.79
2023-03-11T22:39:04.371Z,62.74
2023-03-11T22:41:31.087Z,63.23
2023-03-11T22:43:57.850Z,63.80
2023-03-11T22:46:24.654Z,62.52
2023-03-11T22:48:51.217Z,62.78
2023-03-11T22:51:21.098Z,62.76
2023-03-11T22:53:47.760Z,62.98
2023-03-11T22:56:15.234Z,62.45
2023-03-11T22:58:42.130Z,62.81
2023-03-11T23:01:08.833Z,62.85
2023-03-11T23:03:36.026Z,62.77
2023-03-11T23:06:04.700Z,62.16
2023-03-11T23:08:31.571Z,61.92
2023-03-11T23:11:01.651Z,62.17
2023-03-11T23:13:28.358Z,62.13
2023-03-11T23:15:54.926Z,61.89
2023-03-11T23:18:21.590Z,61.80
2023-03-11T23:20:48.157Z,61.69
2023-03-11T23:23:14.817Z,61.03
2023-03-11T23:25:42.335Z,61.48
2023-03-11T23:28:09.046Z,61.21
2023-03-11T23:30:35.689Z,60.82
2023-03-11T23:33:06.250Z,61.44
2023-03-11T23:35:33.335Z,60.92
2023-03-11T23:38:00.152Z,60.50
2023-03-11T23:40:26.791Z,61.05
2023-03-11T23:42:53.432Z,61.26
2023-03-11T23:45:20.088Z,61.40
2023-03-11T23:47:46.764Z,61.52
2023-03-11T23:50:13.511Z,61.34
2023-03-11T23:52:40.058Z,61.55
2023-03-11T23:55:06.991Z,61.89
2023-03-11T23:57:37.380Z,62.14
